01:58
Airports
History
Links
Donate
Help keep this website running!
PayPal
Bitcoin
Information on this page is community maintained and may be outdated or inaccurate and is intended for reference only or PC simulator navigating.
Always use approved charts for navigating.
SDWQ
Alenquer
Alenquer (SDWQ)
Alenquer, Para, Brazil (68200)
(U)
Lat/Lng:1° 55' 1" S / 54° 43' 22" W
-1.916944 / -54.722778
Elevation:102'ft 31mMSL
ID / ICAO:SDWQ
Runways:1
Longest:(10-28) 997.8m 3,274ft Asphalt
Distance To
Airport ID:
Nearby WeatherUpdated 06-28-17 01:00 GMT
Nearby weather at SBSN, SANTAREM located 35.3 nautical miles from SDWQ
Altimeter: 29.91
Visibility: 6.2 statute miles
Wind: 0 knots (000°)
Temp: 24°c 75°f
Humidity: 100.0%

METAR: SBSN 280100Z 00000KT CAVOK 24/24 Q1013

(Powered by phpweather)
Runway 10 / 28
Dimensions:997.8 x 22.9m 3274' x 75'ft
Surface:Asphalt
Runway 10 [A]Runway 28 [B]
Heading:082°TH 262°TH
Lat:
Lng:
1° 55' 3.19"S
54° 43' 38.06"W
1° 54' 58.81"S
54° 43' 5.94"W
User Notes and Comments
Google Map
Nearby Airports
(C) SANTAREM 35.3 NM
SBSN (WX) S 187°
4 Fazenda Mangal 40.9 NM
SSRT NW 309°
4 Piquiatuba 43.5 NM
SNCJ S 178°
(C) Monte Alegre 45.1 NM
SNMA E 96°
4 Sao Jose 45.9 NM
SNSH S 180°
(C) Belterra 53.2 NM
SNEL SSW 193°
(C) Obidos 54.8 NM
SNTI W 273°
VFR Chart
Flight Planning at SkyVector.com